| time (UTC) | temp F | wind direction | speed knots | gust knots | rain 1hr in | rain 24hr in | rain mn in | humidity % | barometer mb |
| 20260507151321 | 47 | 231 | 1.7 | 2.6 | 0.00 | 0.00 | 0.00 | 44 | 1012.2 |
| 20260507150818 | 47 | 267 | 0.9 | 5.2 | 0.00 | 0.00 | 0.00 | 42 | 1012.2 |
| 20260507150314 | 49 | 216 | 0.9 | 1.7 | 0.00 | 0.00 | 0.00 | 42 | 1012.2 |
| 20260507145810 | 48 | 252 | 0.0 | 2.6 | 0.00 | 0.00 | 0.00 | 43 | 1012.3 |
| 20260507145307 | 47 | 335 | 0.9 | 5.2 | 0.00 | 0.00 | 0.00 | 44 | 1012.1 |
| 20260507144804 | 49 | 235 | 0.9 | 1.7 | 0.00 | 0.00 | 0.00 | 43 | 1012.3 |
| 20260507144301 | 46 | 251 | 0.9 | 1.7 | 0.00 | 0.00 | 0.00 | 51 | 1012.3 |
| 20260507143758 | 49 | 292 | 0.9 | 2.6 | 0.00 | 0.00 | 0.00 | 46 | 1012.3 |
| 20260507143255 | 48 | 276 | 0.9 | 2.6 | 0.00 | 0.00 | 0.00 | 45 | 1012.2 |
| 20260507142751 | 47 | 350 | 0.0 | 2.6 | 0.00 | 0.00 | 0.00 | 52 | 1012.4 |
| 20260507142248 | 46 | 187 | 0.0 | 2.6 | 0.00 | 0.00 | 0.00 | 49 | 1012.3 |
| 20260507141744 | 46 | 270 | 2.6 | 3.5 | 0.00 | 0.00 | 0.00 | 50 | 1012.4 |
| 20260507141241 | 45 | 234 | 2.6 | 3.5 | 0.00 | 0.00 | 0.00 | 51 | 1012.3 |
| 20260507140737 | 46 | 239 | 1.7 | 1.7 | 0.00 | 0.00 | 0.00 | 51 | 1012.3 |
| 20260507140235 | 46 | 289 | 3.5 | 3.5 | 0.00 | 0.00 | 0.00 | 52 | 1012.4 |
| 20260507135732 | 46 | 270 | 0.9 | 1.7 | 0.00 | 0.00 | 0.00 | 53 | 1012.6 |
| 20260507135229 | 44 | 310 | 2.6 | 5.2 | 0.00 | 0.00 | 0.00 | 54 | 1012.5 |
| 20260507134725 | 44 | 291 | 1.7 | 3.5 | 0.00 | 0.00 | 0.00 | 55 | 1012.4 |
| 20260507134222 | 44 | 211 | 1.7 | 5.2 | 0.00 | 0.00 | 0.00 | 55 | 1012.6 |
| 20260507133718 | 44 | 254 | 1.7 | 2.6 | 0.00 | 0.00 | 0.00 | 58 | 1012.4 |
| 20260507133215 | 44 | 206 | 3.5 | 3.5 | 0.00 | 0.00 | 0.00 | 55 | 1012.6 |
| 20260507132712 | 45 | 208 | 0.9 | 1.7 | 0.00 | 0.00 | 0.00 | 57 | 1012.4 |
| 20260507132208 | 46 | 276 | 0.0 | 0.9 | 0.00 | 0.00 | 0.00 | 57 | 1012.5 |
| 20260507131705 | 43 | 140 | 0.0 | 0.0 | 0.00 | 0.00 | 0.00 | 60 | 1012.7 |
| 20260507131203 | 43 | 114 | 0.9 | 1.7 | 0.00 | 0.00 | 0.00 | 63 | 1012.6 |
| 20260507130659 | 43 | 103 | 0.0 | 1.7 | 0.00 | 0.00 | 0.00 | 64 | 1012.5 |
| 20260507130157 | 42 | 144 | 0.9 | 0.9 | 0.00 | 0.00 | 0.00 | 66 | 1012.6 |
| 20260507125656 | 41 | 254 | 0.0 | 0.9 | 0.00 | 0.00 | 0.00 | 68 | 1012.5 |
| 20260507125153 | 40 | 112 | 0.9 | 0.9 | 0.00 | 0.00 | 0.00 | 68 | 1012.8 |
| 20260507124649 | 41 | 244 | 0.0 | 0.9 | 0.00 | 0.00 | 0.00 | 67 | 1012.7 |
| 20260507124147 | 39 | 237 | 0.0 | 0.9 | 0.00 | 0.00 | 0.00 | 70 | 1012.6 |
| 20260507123645 | 39 | 250 | 0.0 | 0.9 | 0.00 | 0.00 | 0.00 | 70 | 1012.8 |
| 20260507123142 | 38 | 222 | 0.0 | 0.0 | 0.00 | 0.00 | 0.00 | 74 | 1012.6 |
| 20260507122637 | 38 | 222 | 0.0 | 0.0 | 0.00 | 0.00 | 0.00 | 76 | 1012.6 |
| 20260507122133 | 37 | 222 | 0.0 | 0.0 | 0.00 | 0.00 | 0.00 | 75 | 1012.7 |
| 20260507121629 | 37 | 222 | 0.0 | 0.0 | 0.00 | 0.00 | 0.00 | 75 | 1012.7 |
| 20260507121125 | 37 | 238 | 0.0 | 0.0 | 0.00 | 0.00 | 0.00 | 75 | 1012.7 |
| 20260507120621 | 37 | 242 | 0.0 | 0.0 | 0.00 | 0.00 | 0.00 | 75 | 1012.7 |
| 20260507120118 | 37 | 241 | 0.0 | 0.0 | 0.00 | 0.00 | 0.00 | 76 | 1012.5 |
| 20260507115615 | 37 | 218 | 0.0 | 0.0 | 0.00 | 0.00 | 0.00 | 75 | 1012.6 |
| 20260507115110 | 36 | 218 | 0.0 | 0.0 | 0.00 | 0.00 | 0.00 | 77 | 1012.6 |
| 20260507114606 | 36 | 224 | 0.0 | 0.0 | 0.00 | 0.00 | 0.00 | 77 | 1012.5 |
| 20260507114104 | 36 | 236 | 0.0 | 0.0 | 0.00 | 0.00 | 0.00 | 76 | 1012.5 |
| 20260507113601 | 36 | 230 | 0.0 | 0.0 | 0.00 | 0.00 | 0.00 | 77 | 1012.5 |
| 20260507113058 | 35 | 236 | 0.0 | 0.0 | 0.00 | 0.00 | 0.00 | 78 | 1012.6 |
| 20260507112556 | 35 | 238 | 0.0 | 0.0 | 0.00 | 0.00 | 0.00 | 78 | 1012.4 |
| 20260507112052 | 35 | 249 | 0.9 | 0.9 | 0.00 | 0.00 | 0.00 | 78 | 1012.3 |
| 20260507111549 | 35 | 283 | 0.9 | 1.7 | 0.00 | 0.00 | 0.00 | 78 | 1012.4 |
| 20260507111046 | 35 | 258 | 0.0 | 0.0 | 0.00 | 0.00 | 0.00 | 78 | 1012.4 |
| 20260507110542 | 35 | 270 | 0.0 | 0.0 | 0.00 | 0.00 | 0.00 | 77 | 1012.6 |
| 20260507110039 | 35 | 245 | 0.0 | 0.0 | 0.00 | 0.00 | 0.00 | 77 | 1012.5 |
| 20260507105536 | 35 | 245 | 0.0 | 0.0 | 0.00 | 0.00 | 0.00 | 76 | 1012.5 |
| 20260507105032 | 35 | 245 | 0.0 | 0.0 | 0.00 | 0.00 | 0.00 | 76 | 1012.5 |
| 20260507104530 | 35 | 251 | 0.0 | 0.0 | 0.00 | 0.00 | 0.00 | 75 | 1012.5 |
| 20260507104026 | 36 | 253 | 0.0 | 0.0 | 0.00 | 0.00 | 0.00 | 75 | 1012.6 |
| 20260507103522 | 36 | 253 | 0.0 | 0.9 | 0.00 | 0.00 | 0.00 | 74 | 1012.6 |
| 20260507103019 | 36 | 247 | 0.0 | 0.0 | 0.00 | 0.00 | 0.00 | 74 | 1012.6 |
| 20260507102515 | 36 | 270 | 0.0 | 0.9 | 0.00 | 0.00 | 0.00 | 74 | 1012.6 |
| 20260507102011 | 36 | 257 | 0.0 | 0.9 | 0.00 | 0.00 | 0.00 | 74 | 1012.6 |
| 20260507101507 | 35 | 266 | 0.9 | 0.9 | 0.00 | 0.00 | 0.00 | 75 | 1012.8 |
| 20260507101004 | 36 | 266 | 0.0 | 0.9 | 0.00 | 0.00 | 0.00 | 75 | 1012.6 |
| 20260507100501 | 35 | 260 | 0.9 | 1.7 | 0.00 | 0.00 | 0.00 | 75 | 1012.5 |
| 20260507095959 | 35 | 275 | 0.0 | 0.0 | 0.00 | 0.00 | 0.00 | 76 | 1012.7 |
| 20260507095457 | 35 | 262 | 0.0 | 0.0 | 0.00 | 0.00 | 0.00 | 77 | 1012.4 |
| 20260507094953 | 35 | 257 | 0.0 | 0.0 | 0.00 | 0.00 | 0.00 | 78 | 1012.6 |
| 20260507094449 | 35 | 258 | 0.0 | 0.0 | 0.00 | 0.00 | 0.00 | 79 | 1012.7 |
| 20260507093947 | 35 | 254 | 0.0 | 0.0 | 0.00 | 0.00 | 0.00 | 81 | 1012.7 |
| 20260507093444 | 35 | 259 | 0.0 | 0.0 | 0.00 | 0.00 | 0.00 | 82 | 1012.5 |
| 20260507092942 | 35 | 255 | 0.0 | 0.9 | 0.00 | 0.00 | 0.00 | 82 | 1012.7 |
| 20260507092438 | 35 | 276 | 0.0 | 0.0 | 0.00 | 0.00 | 0.00 | 82 | 1012.5 |
| 20260507091935 | 35 | 248 | 0.0 | 0.0 | 0.00 | 0.00 | 0.00 | 78 | 1012.5 |
| 20260507091432 | 35 | 198 | 0.0 | 0.0 | 0.00 | 0.00 | 0.00 | 78 | 1012.7 |
| 20260507090927 | 35 | 188 | 0.0 | 0.0 | 0.00 | 0.00 | 0.00 | 78 | 1012.5 |
| 20260507090424 | 35 | 183 | 0.0 | 0.0 | 0.00 | 0.00 | 0.00 | 79 | 1012.6 |
| 20260507085921 | 35 | 166 | 0.0 | 0.9 | 0.00 | 0.00 | 0.00 | 79 | 1012.5 |
| 20260507085418 | 34 | 125 | 0.0 | 0.0 | 0.00 | 0.00 | 0.00 | 78 | 1012.6 |
| 20260507084915 | 34 | 125 | 0.0 | 0.0 | 0.00 | 0.00 | 0.00 | 77 | 1012.6 |
| 20260507084411 | 35 | 125 | 0.0 | 0.0 | 0.00 | 0.00 | 0.00 | 77 | 1012.6 |
| 20260507083909 | 34 | 125 | 0.0 | 0.0 | 0.00 | 0.00 | 0.00 | 77 | 1012.5 |
| 20260507083405 | 34 | 125 | 0.0 | 0.0 | 0.00 | 0.00 | 0.00 | 78 | 1012.6 |
| 20260507082901 | 34 | 125 | 0.0 | 0.9 | 0.00 | 0.00 | 0.00 | 79 | 1012.6 |
| 20260507082357 | 34 | 128 | 0.0 | 0.0 | 0.00 | 0.00 | 0.00 | 79 | 1012.7 |
| 20260507081854 | 34 | 128 | 0.0 | 0.0 | 0.00 | 0.00 | 0.00 | 77 | 1012.5 |
| 20260507081350 | 34 | 128 | 0.0 | 0.0 | 0.00 | 0.00 | 0.00 | 76 | 1012.4 |
| 20260507080847 | 34 | 128 | 0.0 | 0.0 | 0.00 | 0.00 | 0.00 | 75 | 1012.6 |
| 20260507080343 | 35 | 128 | 0.0 | 0.0 | 0.00 | 0.00 | 0.00 | 74 | 1012.4 |
| 20260507075839 | 34 | 134 | 0.9 | 0.9 | 0.00 | 0.00 | 0.00 | 78 | 1012.4 |
| 20260507075335 | 34 | 239 | 0.0 | 0.0 | 0.00 | 0.00 | 0.00 | 75 | 1012.6 |
| 20260507074832 | 35 | 239 | 0.0 | 0.0 | 0.00 | 0.00 | 0.00 | 72 | 1012.3 |
| 20260507074329 | 35 | 239 | 0.0 | 0.0 | 0.00 | 0.00 | 0.00 | 71 | 1012.5 |
| 20260507073826 | 35 | 252 | 0.0 | 0.0 | 0.00 | 0.00 | 0.00 | 73 | 1012.5 |
| 20260507073323 | 35 | 253 | 0.0 | 0.0 | 0.00 | 0.00 | 0.00 | 73 | 1012.6 |
| 20260507072820 | 35 | 253 | 0.0 | 0.0 | 0.00 | 0.00 | 0.00 | 73 | 1012.5 |
| 20260507072317 | 35 | 253 | 0.0 | 0.0 | 0.00 | 0.00 | 0.00 | 74 | 1012.7 |
| 20260507071815 | 35 | 253 | 0.0 | 0.0 | 0.00 | 0.00 | 0.00 | 72 | 1012.8 |
| 20260507071311 | 35 | 253 | 0.0 | 0.0 | 0.00 | 0.00 | 0.00 | 71 | 1012.7 |
| 20260507070808 | 36 | 253 | 0.0 | 0.0 | 0.00 | 0.00 | 0.00 | 70 | 1013.0 |
| 20260507070305 | 37 | 253 | 0.0 | 0.0 | 0.00 | 0.00 | 0.00 | 68 | 1013.1 |
| 20260507065802 | 37 | 253 | 0.0 | 0.0 | 0.00 | 0.00 | 0.00 | 66 | 1012.9 |
| 20260507065258 | 38 | 253 | 0.0 | 0.0 | 0.00 | 0.00 | 0.00 | 64 | 1013.0 |
| 20260507064756 | 38 | 253 | 0.0 | 0.0 | 0.00 | 0.00 | 0.00 | 64 | 1012.9 |
| 20260507064254 | 38 | 253 | 0.0 | 0.9 | 0.00 | 0.00 | 0.00 | 64 | 1013.0 |
| 20260507063752 | 38 | 241 | 0.0 | 0.0 | 0.00 | 0.00 | 0.00 | 63 | 1013.2 |
| 20260507063248 | 39 | 241 | 0.0 | 0.0 | 0.00 | 0.00 | 0.00 | 61 | 1013.1 |
| 20260507062745 | 39 | 236 | 0.0 | 0.9 | 0.00 | 0.00 | 0.00 | 60 | 1013.1 |
| 20260507062242 | 39 | 241 | 0.0 | 0.9 | 0.00 | 0.00 | 0.00 | 60 | 1013.2 |
| 20260507061741 | 39 | 247 | 0.9 | 0.9 | 0.00 | 0.00 | 0.00 | 60 | 1013.3 |
| 20260507061238 | 39 | 286 | 0.9 | 1.7 | 0.00 | 0.00 | 0.00 | 61 | 1013.4 |
| 20260507060736 | 40 | 252 | 0.0 | 0.0 | 0.00 | 0.00 | 0.00 | 61 | 1013.4 |
| 20260507060232 | 40 | 250 | 0.0 | 0.0 | 0.00 | 0.00 | 0.00 | 60 | 1013.3 |
| 20260507055729 | 40 | 238 | 0.0 | 0.9 | 0.00 | 0.00 | 0.00 | 60 | 1013.4 |
| 20260507055224 | 40 | 269 | 0.0 | 0.9 | 0.00 | 0.00 | 0.00 | 60 | 1013.4 |
| 20260507054720 | 40 | 283 | 0.9 | 0.9 | 0.00 | 0.00 | 0.00 | 59 | 1013.6 |
| 20260507054218 | 40 | 249 | 0.0 | 1.7 | 0.00 | 0.00 | 0.00 | 58 | 1013.5 |
| 20260507053715 | 40 | 261 | 0.0 | 0.9 | 0.00 | 0.00 | 0.00 | 58 | 1013.5 |
| 20260507053213 | 40 | 258 | 0.0 | 0.9 | 0.00 | 0.00 | 0.00 | 58 | 1013.4 |
| 20260507052712 | 41 | 257 | 0.0 | 0.9 | 0.00 | 0.00 | 0.00 | 59 | 1013.5 |
| 20260507052207 | 40 | 282 | 0.0 | 0.9 | 0.00 | 0.00 | 0.00 | 60 | 1013.4 |
| 20260507051705 | 41 | 249 | 0.9 | 0.9 | 0.00 | 0.00 | 0.00 | 60 | 1013.4 |
| 20260507051202 | 41 | 270 | 0.0 | 0.9 | 0.00 | 0.00 | 0.00 | 59 | 1013.6 |
| 20260507050658 | 41 | 277 | 0.9 | 1.7 | 0.00 | 0.00 | 0.00 | 58 | 1013.5 |
| 20260507050155 | 41 | 245 | 0.9 | 0.9 | 0.00 | 0.00 | 0.00 | 59 | 1013.6 |
| 20260507045652 | 41 | 274 | 0.0 | 0.9 | 0.00 | 0.00 | 0.00 | 59 | 1013.6 |
| 20260507045149 | 41 | 276 | 0.9 | 1.7 | 0.00 | 0.00 | 0.00 | 59 | 1013.7 |
| 20260507044646 | 41 | 275 | 0.0 | 0.0 | 0.00 | 0.00 | 0.00 | 60 | 1013.6 |
| 20260507044142 | 41 | 243 | 0.9 | 0.9 | 0.00 | 0.00 | 0.00 | 59 | 1013.6 |
| 20260507043638 | 41 | 232 | 0.0 | 1.7 | 0.00 | 0.00 | 0.00 | 59 | 1013.6 |
| 20260507043136 | 41 | 254 | 0.0 | 0.0 | 0.00 | 0.00 | 0.00 | 58 | 1013.7 |
| 20260507042632 | 41 | 262 | 0.0 | 0.0 | 0.00 | 0.00 | 0.00 | 57 | 1013.9 |
| 20260507042127 | 41 | 293 | 0.0 | 0.9 | 0.00 | 0.00 | 0.00 | 57 | 1013.7 |
| 20260507041624 | 41 | 258 | 0.9 | 0.9 | 0.00 | 0.00 | 0.00 | 57 | 1013.7 |
| 20260507041121 | 41 | 351 | 0.9 | 0.9 | 0.00 | 0.00 | 0.00 | 57 | 1013.9 |
| 20260507040618 | 41 | 269 | 0.0 | 0.0 | 0.00 | 0.00 | 0.00 | 57 | 1014.0 |
| 20260507040114 | 41 | 295 | 0.9 | 0.9 | 0.00 | 0.00 | 0.00 | 57 | 1014.1 |
| 20260507035610 | 41 | 295 | 0.0 | 2.6 | 0.00 | 0.00 | 0.00 | 56 | 1014.2 |
| 20260507035107 | 41 | 328 | 0.0 | 0.0 | 0.00 | 0.00 | 0.00 | 57 | 1014.0 |
| 20260507034604 | 42 | 269 | 0.0 | 0.9 | 0.00 | 0.00 | 0.00 | 56 | 1014.0 |
| 20260507034102 | 42 | 235 | 0.0 | 0.9 | 0.00 | 0.00 | 0.00 | 56 | 1014.0 |
| 20260507033559 | 42 | 264 | 1.7 | 2.6 | 0.00 | 0.00 | 0.00 | 56 | 1013.9 |
| 20260507033056 | 42 | 276 | 0.0 | 0.9 | 0.00 | 0.00 | 0.00 | 56 | 1014.0 |
| 20260507032553 | 42 | 257 | 0.0 | 0.0 | 0.00 | 0.00 | 0.00 | 55 | 1014.0 |
| 20260507032049 | 42 | 244 | 0.9 | 1.7 | 0.00 | 0.00 | 0.00 | 54 | 1014.1 |
| 20260507031546 | 42 | 270 | 0.9 | 0.9 | 0.00 | 0.00 | 0.00 | 55 | 1014.0 |
| 20260507031043 | 42 | 286 | 0.0 | 0.9 | 0.00 | 0.00 | 0.00 | 55 | 1014.1 |
| 20260507030539 | 42 | 298 | 1.7 | 3.5 | 0.00 | 0.00 | 0.00 | 54 | 1014.2 |
| 20260507030037 | 42 | 253 | 0.9 | 0.9 | 0.00 | 0.00 | 0.00 | 55 | 1014.2 |
| 20260507025534 | 42 | 313 | 1.7 | 3.5 | 0.00 | 0.00 | 0.00 | 54 | 1014.2 |
| 20260507025032 | 42 | 251 | 0.0 | 1.7 | 0.00 | 0.00 | 0.00 | 54 | 1014.2 |
| 20260507024529 | 42 | 242 | 1.7 | 2.6 | 0.00 | 0.00 | 0.00 | 53 | 1014.3 |
| 20260507024026 | 43 | 277 | 0.0 | 1.7 | 0.00 | 0.00 | 0.00 | 53 | 1014.2 |
| 20260507023521 | 42 | 254 | 0.9 | 1.7 | 0.00 | 0.00 | 0.00 | 53 | 1014.3 |
| 20260507023020 | 42 | 279 | 3.5 | 3.5 | 0.00 | 0.00 | 0.00 | 53 | 1014.2 |
| 20260507022516 | 42 | 250 | 1.7 | 2.6 | 0.00 | 0.00 | 0.00 | 54 | 1014.5 |
| 20260507022011 | 42 | 244 | 0.0 | 0.0 | 0.00 | 0.00 | 0.00 | 54 | 1014.4 |
| 20260507021508 | 42 | 224 | 0.0 | 0.0 | 0.00 | 0.00 | 0.00 | 56 | 1014.5 |
| 20260507021004 | 42 | 237 | 0.0 | 0.0 | 0.00 | 0.00 | 0.00 | 54 | 1014.2 |
| 20260507020501 | 42 | 237 | 0.0 | 0.0 | 0.00 | 0.00 | 0.00 | 54 | 1014.3 |
| 20260507015958 | 42 | 237 | 0.0 | 0.0 | 0.00 | 0.00 | 0.00 | 53 | 1014.1 |
| 20260507015457 | 42 | 264 | 0.0 | 0.9 | 0.00 | 0.00 | 0.00 | 52 | 1014.2 |
| 20260507014954 | 42 | 288 | 0.0 | 0.9 | 0.00 | 0.00 | 0.00 | 52 | 1014.3 |
| 20260507014450 | 42 | 252 | 0.0 | 0.9 | 0.00 | 0.00 | 0.00 | 52 | 1014.3 |
| 20260507013946 | 42 | 256 | 0.0 | 0.9 | 0.00 | 0.00 | 0.00 | 52 | 1014.3 |
| 20260507013443 | 42 | 289 | 0.0 | 0.0 | 0.00 | 0.00 | 0.00 | 53 | 1014.3 |
| 20260507012940 | 42 | 254 | 0.9 | 0.9 | 0.00 | 0.00 | 0.00 | 52 | 1014.2 |
| 20260507012437 | 43 | 278 | 0.0 | 0.9 | 0.00 | 0.00 | 0.00 | 52 | 1014.2 |
| 20260507011934 | 43 | 248 | 0.0 | 0.9 | 0.00 | 0.00 | 0.00 | 51 | 1014.3 |
| 20260507011432 | 43 | 249 | 1.7 | 1.7 | 0.00 | 0.00 | 0.00 | 51 | 1014.2 |
| 20260507010931 | 43 | 279 | 0.0 | 0.9 | 0.00 | 0.00 | 0.00 | 51 | 1014.2 |
| 20260507010426 | 43 | 253 | 0.9 | 1.7 | 0.00 | 0.00 | 0.00 | 52 | 1014.2 |
| 20260507005924 | 43 | 258 | 0.0 | 0.0 | 0.00 | 0.00 | 0.00 | 52 | 1014.2 |
| 20260507005421 | 43 | 302 | 0.0 | 0.0 | 0.00 | 0.00 | 0.00 | 52 | 1014.2 |
| 20260507004917 | 43 | 231 | 1.7 | 1.7 | 0.00 | 0.00 | 0.00 | 50 | 1014.2 |
| 20260507004414 | 43 | 260 | 0.9 | 2.6 | 0.00 | 0.00 | 0.00 | 51 | 1014.2 |
| 20260507003911 | 43 | 278 | 0.9 | 1.7 | 0.00 | 0.00 | 0.00 | 50 | 1014.3 |
| 20260507003406 | 43 | 331 | 0.9 | 2.6 | 0.00 | 0.00 | 0.00 | 51 | 1014.3 |
| 20260507002902 | 43 | 277 | 0.9 | 1.7 | 0.00 | 0.00 | 0.00 | 50 | 1014.6 |
| 20260507002358 | 43 | 293 | 0.9 | 2.6 | 0.00 | 0.00 | 0.00 | 51 | 1014.5 |
| 20260507001856 | 43 | 256 | 2.6 | 5.2 | 0.00 | 0.00 | 0.00 | 49 | 1014.4 |
| 20260507001352 | 43 | 309 | 0.0 | 2.6 | 0.00 | 0.00 | 0.00 | 51 | 1014.6 |
| 20260507000849 | 43 | 279 | 1.7 | 1.7 | 0.00 | 0.00 | 0.00 | 50 | 1014.3 |
| 20260507000344 | 43 | 306 | 1.7 | 1.7 | 0.00 | 0.00 | 0.00 | 50 | 1014.5 |
| 20260506235841 | 43 | 296 | 4.3 | 6.1 | 0.00 | 0.00 | 0.00 | 50 | 1014.5 |
| 20260506235338 | 43 | 287 | 2.6 | 6.1 | 0.00 | 0.00 | 0.00 | 51 | 1014.4 |
| 20260506234834 | 44 | 74 | 1.7 | 5.2 | 0.00 | 0.00 | 0.00 | 50 | 1014.7 |
| 20260506234332 | 44 | 270 | 1.7 | 2.6 | 0.00 | 0.00 | 0.00 | 50 | 1014.7 |
| 20260506233829 | 44 | 301 | 1.7 | 5.2 | 0.00 | 0.00 | 0.00 | 49 | 1014.6 |
| 20260506233325 | 44 | 308 | 1.7 | 2.6 | 0.00 | 0.00 | 0.00 | 50 | 1014.6 |
| 20260506232822 | 44 | 0 | 2.6 | 3.5 | 0.00 | 0.00 | 0.00 | 50 | 1014.7 |
| 20260506232317 | 44 | 301 | 0.9 | 2.6 | 0.00 | 0.00 | 0.00 | 50 | 1014.6 |
| 20260506231814 | 44 | 292 | 4.3 | 5.2 | 0.00 | 0.00 | 0.00 | 49 | 1014.7 |
| 20260506231312 | 44 | 291 | 0.9 | 2.6 | 0.00 | 0.00 | 0.00 | 53 | 1014.6 |
| 20260506230809 | 44 | 328 | 0.0 | 1.7 | 0.00 | 0.00 | 0.00 | 52 | 1014.6 |
| 20260506230306 | 44 | 225 | 5.2 | 7.0 | 0.00 | 0.00 | 0.00 | 49 | 1014.8 |
| 20260506225802 | 43 | 281 | 3.5 | 5.2 | 0.00 | 0.00 | 0.00 | 49 | 1014.7 |
| 20260506225259 | 44 | 311 | 3.5 | 8.7 | 0.00 | 0.00 | 0.00 | 50 | 1014.9 |
| 20260506224756 | 44 | 290 | 4.3 | 5.2 | 0.00 | 0.00 | 0.00 | 51 | 1014.8 |
| 20260506224254 | 44 | 337 | 3.5 | 6.1 | 0.00 | 0.00 | 0.00 | 49 | 1014.8 |
| 20260506223750 | 44 | 283 | 3.5 | 7.8 | 0.00 | 0.00 | 0.00 | 51 | 1014.6 |
| 20260506223246 | 44 | 234 | 4.3 | 7.0 | 0.00 | 0.00 | 0.00 | 49 | 1014.9 |
| 20260506222743 | 44 | 300 | 0.0 | 1.7 | 0.00 | 0.00 | 0.00 | 51 | 1014.8 |
| 20260506222238 | 44 | 257 | 3.5 | 3.5 | 0.00 | 0.00 | 0.00 | 50 | 1014.9 |
| 20260506221736 | 44 | 326 | 3.5 | 5.2 | 0.00 | 0.00 | 0.00 | 53 | 1014.9 |
| 20260506221234 | 43 | 289 | 0.9 | 2.6 | 0.00 | 0.00 | 0.00 | 52 | 1014.9 |
| 20260506220731 | 44 | 272 | 3.5 | 7.8 | 0.00 | 0.00 | 0.00 | 50 | 1015.1 |
| 20260506220226 | 44 | 334 | 2.6 | 5.2 | 0.00 | 0.00 | 0.00 | 51 | 1014.9 |
| 20260506215723 | 43 | 334 | 1.7 | 2.6 | 0.00 | 0.00 | 0.00 | 51 | 1015.0 |
| 20260506215218 | 43 | 287 | 0.0 | 2.6 | 0.00 | 0.00 | 0.00 | 52 | 1015.1 |
| 20260506214715 | 43 | 303 | 2.6 | 3.5 | 0.00 | 0.00 | 0.00 | 52 | 1015.1 |
| 20260506214212 | 43 | 288 | 2.6 | 7.0 | 0.00 | 0.00 | 0.00 | 50 | 1015.2 |
| 20260506213711 | 43 | 325 | 1.7 | 5.2 | 0.00 | 0.00 | 0.00 | 52 | 1015.1 |
| 20260506213208 | 43 | 270 | 2.6 | 7.0 | 0.00 | 0.00 | 0.00 | 52 | 1015.3 |
| 20260506212705 | 43 | 260 | 4.3 | 6.1 | 0.00 | 0.00 | 0.00 | 51 | 1015.3 |
| 20260506212200 | 43 | 230 | 4.3 | 7.8 | 0.00 | 0.00 | 0.00 | 52 | 1015.4 |
| 20260506211655 | 43 | 240 | 4.3 | 7.0 | 0.00 | 0.00 | 0.00 | 51 | 1015.3 |
| 20260506211152 | 43 | 305 | 2.6 | 7.0 | 0.00 | 0.00 | 0.00 | 52 | 1015.3 |
| 20260506210649 | 43 | 331 | 0.9 | 5.2 | 0.00 | 0.00 | 0.00 | 52 | 1015.3 |
| 20260506210146 | 43 | 285 | 0.9 | 3.5 | 0.00 | 0.00 | 0.00 | 52 | 1015.3 |
| 20260506205643 | 43 | 292 | 2.6 | 7.0 | 0.00 | 0.00 | 0.00 | 51 | 1015.4 |
| 20260506205138 | 43 | 38 | 0.9 | 6.1 | 0.00 | 0.00 | 0.00 | 51 | 1015.3 |
| 20260506204636 | 43 | 293 | 1.7 | 5.2 | 0.00 | 0.00 | 0.00 | 52 | 1015.3 |
| 20260506204132 | 43 | 246 | 3.5 | 6.1 | 0.00 | 0.00 | 0.00 | 50 | 1015.4 |
| 20260506203631 | 43 | 273 | 2.6 | 5.2 | 0.00 | 0.00 | 0.00 | 52 | 1015.3 |
| 20260506203127 | 44 | 257 | 6.1 | 7.8 | 0.00 | 0.00 | 0.00 | 49 | 1015.3 |
| 20260506202625 | 43 | 275 | 1.7 | 5.2 | 0.00 | 0.00 | 0.00 | 51 | 1015.4 |
| 20260506202121 | 43 | 295 | 4.3 | 7.8 | 0.00 | 0.00 | 0.00 | 52 | 1015.5 |
| 20260506201618 | 44 | 326 | 4.3 | 7.0 | 0.00 | 0.00 | 0.00 | 49 | 1015.5 |
| 20260506201115 | 43 | 314 | 3.5 | 7.8 | 0.00 | 0.00 | 0.00 | 51 | 1015.5 |
| 20260506200611 | 43 | 275 | 3.5 | 7.8 | 0.00 | 0.00 | 0.00 | 51 | 1015.4 |
| 20260506200108 | 43 | 280 | 2.6 | 6.1 | 0.00 | 0.00 | 0.00 | 51 | 1015.4 |
| 20260506195605 | 42 | 8 | 1.7 | 7.0 | 0.00 | 0.00 | 0.00 | 52 | 1015.5 |
| 20260506195101 | 43 | 356 | 7.8 | 8.7 | 0.00 | 0.00 | 0.00 | 49 | 1015.5 |
| 20260506194559 | 43 | 286 | 4.3 | 7.0 | 0.00 | 0.00 | 0.00 | 52 | 1015.5 |
| 20260506194055 | 43 | 217 | 1.7 | 7.8 | 0.00 | 0.00 | 0.00 | 54 | 1015.5 |
| 20260506193553 | 42 | 234 | 3.5 | 6.1 | 0.00 | 0.00 | 0.00 | 51 | 1015.5 |
| 20260506193050 | 43 | 295 | 5.2 | 6.1 | 0.00 | 0.00 | 0.00 | 52 | 1015.5 |
| 20260506192547 | 42 | 289 | 1.7 | 3.5 | 0.00 | 0.00 | 0.00 | 51 | 1015.6 |
| 20260506192042 | 42 | 298 | 3.5 | 7.8 | 0.00 | 0.00 | 0.00 | 52 | 1015.6 |
| 20260506191539 | 43 | 336 | 1.7 | 6.1 | 0.00 | 0.00 | 0.00 | 52 | 1015.6 |
| 20260506191035 | 42 | 290 | 4.3 | 6.1 | 0.00 | 0.00 | 0.00 | 52 | 1015.6 |
| 20260506190533 | 42 | 234 | 1.7 | 2.6 | 0.00 | 0.00 | 0.00 | 56 | 1015.6 |
| 20260506190030 | 43 | 314 | 3.5 | 5.2 | 0.00 | 0.00 | 0.00 | 53 | 1015.8 |
| 20260506185527 | 41 | 322 | 3.5 | 5.2 | 0.00 | 0.00 | 0.00 | 54 | 1015.5 |
| 20260506185023 | 41 | 317 | 0.9 | 8.7 | 0.00 | 0.00 | 0.00 | 56 | 1015.7 |
| 20260506184520 | 42 | 235 | 4.3 | 7.0 | 0.00 | 0.00 | 0.00 | 55 | 1015.7 |
| 20260506184018 | 42 | 308 | 2.6 | 6.1 | 0.00 | 0.00 | 0.00 | 56 | 1015.6 |
| 20260506183513 | 41 | 223 | 2.6 | 3.5 | 0.00 | 0.00 | 0.00 | 56 | 1015.7 |
| 20260506183010 | 41 | 345 | 3.5 | 7.0 | 0.00 | 0.00 | 0.00 | 54 | 1015.7 |
| 20260506182507 | 41 | 290 | 4.3 | 7.8 | 0.00 | 0.00 | 0.00 | 54 | 1015.9 |
| 20260506182004 | 41 | 277 | 2.6 | 2.6 | 0.00 | 0.00 | 0.00 | 56 | 1015.7 |
| 20260506181503 | 41 | 295 | 6.1 | 7.8 | 0.00 | 0.00 | 0.00 | 55 | 1015.6 |
| 20260506180959 | 41 | 286 | 4.3 | 7.8 | 0.00 | 0.00 | 0.00 | 54 | 1015.7 |
| 20260506180456 | 41 | 217 | 3.5 | 5.2 | 0.00 | 0.00 | 0.00 | 56 | 1015.9 |
| 20260506175952 | 41 | 285 | 5.2 | 6.1 | 0.00 | 0.00 | 0.00 | 54 | 1015.6 |
| 20260506175449 | 41 | 298 | 1.7 | 2.6 | 0.00 | 0.00 | 0.00 | 57 | 1015.7 |
| 20260506174945 | 40 | 332 | 0.9 | 5.2 | 0.00 | 0.00 | 0.00 | 55 | 1015.9 |
| 20260506174444 | 41 | 348 | 3.5 | 3.5 | 0.00 | 0.00 | 0.00 | 57 | 1016.0 |
| 20260506173940 | 40 | 282 | 1.7 | 5.2 | 0.00 | 0.00 | 0.00 | 57 | 1015.8 |
| 20260506173437 | 40 | 267 | 4.3 | 7.0 | 0.00 | 0.00 | 0.00 | 58 | 1015.7 |
| 20260506172934 | 40 | 281 | 4.3 | 5.2 | 0.00 | 0.00 | 0.00 | 57 | 1016.0 |
| 20260506172432 | 40 | 223 | 5.2 | 7.0 | 0.00 | 0.00 | 0.00 | 56 | 1015.9 |
| 20260506171928 | 40 | 301 | 5.2 | 6.1 | 0.00 | 0.00 | 0.00 | 56 | 1015.7 |
| 20260506171426 | 40 | 330 | 3.5 | 7.0 | 0.00 | 0.00 | 0.00 | 57 | 1016.0 |
| 20260506170923 | 40 | 302 | 4.3 | 7.8 | 0.00 | 0.00 | 0.00 | 56 | 1015.8 |
| 20260506170419 | 40 | 201 | 1.7 | 5.2 | 0.00 | 0.00 | 0.00 | 56 | 1016.0 |
| 20260506165918 | 40 | 281 | 4.3 | 6.1 | 0.00 | 0.00 | 0.00 | 57 | 1016.0 |
| 20260506165416 | 40 | 255 | 5.2 | 7.0 | 0.00 | 0.00 | 0.00 | 57 | 1016.0 |
| 20260506164912 | 40 | 268 | 1.7 | 3.5 | 0.00 | 0.00 | 0.00 | 57 | 1015.7 |
| 20260506164409 | 40 | 297 | 1.7 | 7.8 | 0.00 | 0.00 | 0.00 | 58 | 1016.0 |
| 20260506163908 | 40 | 261 | 5.2 | 6.1 | 0.00 | 0.00 | 0.00 | 56 | 1015.8 |
| 20260506163407 | 40 | 248 | 2.6 | 3.5 | 0.00 | 0.00 | 0.00 | 58 | 1015.9 |
| 20260506162902 | 40 | 27 | 2.6 | 5.2 | 0.00 | 0.00 | 0.00 | 58 | 1015.8 |
| 20260506162400 | 40 | 17 | 1.7 | 7.0 | 0.00 | 0.00 | 0.00 | 57 | 1015.8 |
| 20260506161858 | 40 | 267 | 2.6 | 6.1 | 0.00 | 0.00 | 0.00 | 58 | 1015.7 |
| 20260506161355 | 40 | 260 | 1.7 | 6.1 | 0.00 | 0.00 | 0.00 | 58 | 1015.8 |
| 20260506160853 | 40 | 358 | 1.7 | 6.1 | 0.00 | 0.00 | 0.00 | 59 | 1015.8 |
| 20260506160349 | 40 | 283 | 3.5 | 6.1 | 0.00 | 0.00 | 0.00 | 58 | 1015.9 |
| 20260506155848 | 40 | 280 | 1.7 | 3.5 | 0.00 | 0.00 | 0.00 | 56 | 1015.9 |
| 20260506155345 | 40 | 3 | 0.9 | 6.1 | 0.00 | 0.00 | 0.00 | 57 | 1015.8 |
| 20260506153502 | 40 | 319 | 1.7 | 3.5 | 0.00 | 0.00 | 0.00 | 60 | 1015.7 |
| 20260506152959 | 40 | 272 | 3.5 | 6.1 | 0.00 | 0.00 | 0.00 | 58 | 1015.8 |
| 20260506152456 | 39 | 314 | 3.5 | 7.0 | 0.00 | 0.00 | 0.00 | 61 | 1015.7 |
| 20260506151954 | 40 | 7 | 2.6 | 3.5 | 0.00 | 0.00 | 0.00 | 58 | 1015.8 |